createdAt,value
2023-07-29T00:00:39.804Z,80.02929688
2023-07-29T00:01:41.515Z,80.02929688
2023-07-29T00:02:42.492Z,80.02929688
2023-07-29T00:03:43.470Z,80.02929688
2023-07-29T00:04:44.403Z,80.12695313
2023-07-29T00:05:45.837Z,79.82788086
2023-07-29T00:06:46.995Z,79.52880859
2023-07-29T00:07:48.159Z,79.52880859
2023-07-29T00:08:49.207Z,79.73022461
2023-07-29T00:09:50.273Z,79.4921875
2023-07-29T00:10:51.291Z,79.38842773
2023-07-29T00:11:52.299Z,79.38842773
2023-07-29T00:12:53.248Z,79.38842773
2023-07-29T00:13:55.000Z,79.29077148
2023-07-29T00:14:56.085Z,79.32739258
2023-07-29T00:15:57.808Z,79.4921875
2023-07-29T00:16:58.939Z,79.12597656
2023-07-29T00:18:30.493Z,79.32739258
2023-07-29T00:19:31.597Z,79.52880859
2023-07-29T00:20:32.598Z,79.52880859
2023-07-29T00:21:33.697Z,79.52880859
2023-07-29T00:22:35.323Z,79.52880859
2023-07-29T00:23:36.242Z,79.52880859
2023-07-29T00:24:37.309Z,79.62646484
2023-07-29T00:25:38.367Z,79.62646484
2023-07-29T00:26:40.367Z,79.73022461
2023-07-29T00:27:41.369Z,79.73022461
2023-07-29T00:28:42.407Z,79.73022461
2023-07-29T00:29:43.255Z,79.62646484
2023-07-29T00:30:44.984Z,79.82788086
2023-07-29T00:31:46.030Z,79.62646484
2023-07-29T00:32:48.137Z,79.43115234
2023-07-29T00:33:49.061Z,79.12597656
2023-07-29T00:34:49.935Z,79.32739258
2023-07-29T00:35:51.803Z,79.32739258
2023-07-29T00:36:53.011Z,79.43115234
2023-07-29T00:37:54.061Z,79.62646484
2023-07-29T00:38:55.074Z,79.73022461
2023-07-29T00:39:56.071Z,79.82788086
2023-07-29T00:40:57.038Z,79.93164063
2023-07-29T00:41:57.942Z,80.12695313
2023-07-29T00:42:59.427Z,80.02929688
2023-07-29T00:44:30.996Z,79.73022461
2023-07-29T00:45:31.986Z,79.62646484
2023-07-29T00:46:34.334Z,79.73022461
2023-07-29T00:47:34.795Z,79.82788086
2023-07-29T00:48:35.973Z,79.93164063
2023-07-29T00:49:36.918Z,79.93164063
2023-07-29T00:50:38.046Z,79.62646484
2023-07-29T00:51:39.101Z,79.43115234
2023-07-29T00:52:40.104Z,79.52880859
2023-07-29T00:53:41.804Z,79.62646484
2023-07-29T00:54:42.816Z,79.62646484
2023-07-29T00:55:44.116Z,79.52880859
2023-07-29T00:56:45.928Z,79.52880859
2023-07-29T00:57:47.044Z,79.52880859
2023-07-29T00:58:48.070Z,79.43115234
2023-07-29T00:59:49.009Z,79.52880859
2023-07-29T01:00:50.893Z,79.62646484
2023-07-29T01:01:52.931Z,79.62646484
2023-07-29T01:02:54.067Z,79.73022461
2023-07-29T01:03:55.199Z,79.43115234
2023-07-29T01:04:55.945Z,79.06494141
2023-07-29T01:05:56.922Z,78.93066406
2023-07-29T01:06:59.423Z,78.93066406
2023-07-29T01:08:31.010Z,78.8269043
2023-07-29T01:09:32.060Z,78.72924805
2023-07-29T01:10:33.083Z,78.46679688
2023-07-29T01:11:34.095Z,78.56445313
2023-07-29T01:12:35.055Z,78.66821289
2023-07-29T01:13:36.228Z,78.76586914
2023-07-29T01:14:37.413Z,79.06494141
2023-07-29T01:15:38.592Z,79.60205078
2023-07-29T01:16:40.450Z,79.90722656
2023-07-29T01:17:41.414Z,80.00488281
2023-07-29T01:18:42.335Z,80.10864258
2023-07-29T01:19:43.429Z,80.10864258
2023-07-29T01:20:44.503Z,80.30395508
2023-07-29T01:21:45.540Z,80.40771484
2023-07-29T01:22:46.455Z,80.60913086
2023-07-29T01:23:47.391Z,80.60913086
2023-07-29T01:24:48.473Z,80.70678711
2023-07-29T01:25:49.493Z,80.70678711
2023-07-29T01:26:51.413Z,80.70678711
2023-07-29T01:27:52.556Z,80.50537109
2023-07-29T01:28:53.419Z,80.40771484
2023-07-29T01:29:55.403Z,80.46875
2023-07-29T01:30:56.965Z,80.46875
2023-07-29T01:31:58.089Z,80.56640625
2023-07-29T01:33:30.146Z,80.67016602
2023-07-29T01:34:31.127Z,80.67016602
2023-07-29T01:35:32.030Z,80.56640625
2023-07-29T01:36:34.007Z,80.56640625
2023-07-29T01:37:34.916Z,80.46875
2023-07-29T01:38:35.991Z,80.36499023
2023-07-29T01:39:37.025Z,80.36499023
2023-07-29T01:40:38.121Z,80.46875
2023-07-29T01:41:39.123Z,80.46875
2023-07-29T01:42:40.058Z,80.26733398
2023-07-29T01:43:41.069Z,80.16967773
2023-07-29T01:44:42.096Z,79.56542969
2023-07-29T01:45:43.305Z,79.16870117
2023-07-29T01:46:45.393Z,78.86352539
2023-07-29T01:47:46.437Z,79.06494141
2023-07-29T01:48:47.403Z,79.26635742
2023-07-29T01:49:48.395Z,79.36401367
2023-07-29T01:50:49.460Z,79.26635742
2023-07-29T01:51:50.559Z,77.76489258
2023-07-29T01:52:51.743Z,78.16772461
2023-07-29T01:53:52.640Z,78.26538086
2023-07-29T01:54:53.626Z,78.16772461
2023-07-29T01:55:54.676Z,77.56347656
2023-07-29T01:56:56.375Z,76.96533203
2023-07-29T01:57:57.445Z,76.46484375
2023-07-29T01:58:58.850Z,76.5625
2023-07-29T02:00:30.838Z,76.5625
2023-07-29T02:01:32.558Z,76.86767578
2023-07-29T02:02:33.410Z,77.16674805
2023-07-29T02:03:34.527Z,77.70385742
2023-07-29T02:04:35.563Z,78.50341797
2023-07-29T02:05:36.487Z,78.80249023
2023-07-29T02:06:38.674Z,79.50439453
2023-07-29T02:07:39.329Z,80.00488281
2023-07-29T02:08:40.426Z,82.91015625
2023-07-29T02:09:41.465Z,83.44726563
2023-07-29T02:10:42.491Z,83.25195313
2023-07-29T02:11:43.409Z,82.1472168
2023-07-29T02:12:44.472Z,82.04956055
2023-07-29T02:13:45.492Z,81.94580078
2023-07-29T02:14:46.602Z,81.4453125
2023-07-29T02:15:47.694Z,81.64672852
2023-07-29T02:16:49.443Z,82.1472168
2023-07-29T02:17:50.309Z,81.94580078
2023-07-29T02:18:53.630Z,81.54907227
2023-07-29T02:19:52.240Z,81.64672852
2023-07-29T02:20:53.327Z,81.34765625
2023-07-29T02:21:54.426Z,82.04956055
2023-07-29T02:22:55.460Z,81.64672852
2023-07-29T02:23:56.415Z,81.74438477
2023-07-29T02:24:57.376Z,81.74438477
2023-07-29T02:25:58.843Z,81.64672852
2023-07-29T02:27:31.423Z,81.14624023
2023-07-29T02:28:32.643Z,80.84716797
2023-07-29T02:29:33.619Z,80.94482422
2023-07-29T02:30:34.818Z,80.90820313
2023-07-29T02:31:36.398Z,80.80444336
2023-07-29T02:32:37.451Z,80.70678711
2023-07-29T02:33:38.335Z,79.90722656
2023-07-29T02:34:39.338Z,79.40673828
2023-07-29T02:35:40.375Z,79.50439453
2023-07-29T02:36:41.865Z,79.8034668
2023-07-29T02:37:42.863Z,79.70581055
2023-07-29T02:38:44.350Z,79.70581055
2023-07-29T02:39:45.430Z,79.8034668
2023-07-29T02:40:46.523Z,79.8034668
2023-07-29T02:41:47.534Z,79.8034668
2023-07-29T02:42:48.549Z,79.90722656
2023-07-29T02:43:49.474Z,80.00488281
2023-07-29T02:44:50.492Z,80.00488281
2023-07-29T02:45:51.605Z,80.20629883
2023-07-29T02:46:53.444Z,80.40771484
2023-07-29T02:47:54.664Z,81.00585938
2023-07-29T02:48:55.481Z,81.40869141
2023-07-29T02:49:56.552Z,81.10961914
2023-07-29T02:50:57.484Z,80.40771484
2023-07-29T02:52:29.263Z,80.50537109
2023-07-29T02:53:30.326Z,80.60913086
2023-07-29T02:54:31.432Z,80.60913086
2023-07-29T02:55:32.392Z,80.70678711
2023-07-29T02:56:33.316Z,81.10961914
2023-07-29T02:57:34.868Z,81.40869141
2023-07-29T02:58:36.088Z,81.40869141
2023-07-29T02:59:37.238Z,81.10961914
2023-07-29T03:00:38.864Z,80.70678711
2023-07-29T03:01:40.417Z,80.56640625
2023-07-29T03:02:41.469Z,81.00585938
2023-07-29T03:03:42.564Z,80.96923828
2023-07-29T03:04:43.321Z,80.96923828
2023-07-29T03:05:44.367Z,81.1706543
2023-07-29T03:06:45.836Z,81.3659668
2023-07-29T03:07:47.372Z,81.67114258
2023-07-29T03:08:48.302Z,81.86645508
2023-07-29T03:09:49.229Z,81.67114258
2023-07-29T03:10:50.286Z,81.56738281
2023-07-29T03:11:51.350Z,81.76879883
2023-07-29T03:12:52.376Z,81.76879883
2023-07-29T03:13:53.419Z,81.67114258
2023-07-29T03:14:54.371Z,81.97021484
2023-07-29T03:15:55.336Z,82.26928711
2023-07-29T03:16:56.963Z,82.17163086
2023-07-29T03:17:58.436Z,81.86645508
2023-07-29T03:19:29.838Z,81.46972656
2023-07-29T03:20:30.710Z,80.67016602
2023-07-29T03:21:31.705Z,80.36499023
2023-07-29T03:22:32.775Z,80.46875
2023-07-29T03:23:33.839Z,80.76782227
2023-07-29T03:24:34.827Z,81.06689453
2023-07-29T03:25:35.774Z,81.1706543
2023-07-29T03:26:37.592Z,81.06689453
2023-07-29T03:27:38.921Z,80.96923828
2023-07-29T03:28:40.002Z,80.86547852
2023-07-29T03:29:42.043Z,80.86547852
2023-07-29T03:30:43.008Z,80.96923828
2023-07-29T03:31:44.942Z,80.86547852
2023-07-29T03:32:45.934Z,80.56640625
2023-07-29T03:33:46.940Z,80.36499023
2023-07-29T03:34:47.913Z,80.06591797
2023-07-29T03:35:49.434Z,79.86450195
2023-07-29T03:36:50.385Z,80.06591797
2023-07-29T03:37:51.818Z,80.26733398
2023-07-29T03:38:52.733Z,80.36499023
2023-07-29T03:39:53.770Z,80.56640625
2023-07-29T03:40:54.860Z,80.46875
2023-07-29T03:41:55.923Z,80.16967773
2023-07-29T03:42:56.864Z,80.16967773
2023-07-29T03:43:58.239Z,80.26733398
2023-07-29T03:45:29.725Z,80.56640625
2023-07-29T03:46:30.733Z,80.46875
2023-07-29T03:47:32.444Z,80.36499023
2023-07-29T03:48:33.491Z,80.20629883
2023-07-29T03:49:34.397Z,80.16967773
2023-07-29T03:50:35.342Z,80.16967773
2023-07-29T03:51:36.328Z,80.10864258
2023-07-29T03:52:37.455Z,80.20629883
2023-07-29T03:53:38.610Z,80.20629883
2023-07-29T03:54:39.612Z,80.20629883
2023-07-29T03:55:40.597Z,80.10864258
2023-07-29T03:56:41.501Z,79.96826172
2023-07-29T03:57:43.582Z,79.86450195
2023-07-29T03:58:44.526Z,79.7668457
2023-07-29T03:59:45.623Z,79.66918945
2023-07-29T04:00:47.447Z,79.7668457
2023-07-29T04:01:48.944Z,79.7668457
2023-07-29T04:02:49.953Z,79.66918945
2023-07-29T04:03:50.962Z,79.70581055
2023-07-29T04:04:52.053Z,79.8034668
2023-07-29T04:05:53.134Z,80.00488281
2023-07-29T04:06:54.020Z,80.10864258
2023-07-29T04:07:55.839Z,80.10864258
2023-07-29T04:08:56.865Z,79.90722656
2023-07-29T04:10:28.648Z,79.90722656
2023-07-29T04:11:29.667Z,79.8034668
2023-07-29T04:12:30.756Z,79.60205078
2023-07-29T04:13:31.712Z,79.60205078
2023-07-29T04:14:32.633Z,79.90722656
2023-07-29T04:15:34.483Z,80.00488281
2023-07-29T04:16:35.951Z,80.00488281
2023-07-29T04:17:37.508Z,80.10864258
2023-07-29T04:18:38.676Z,80.20629883
2023-07-29T04:19:39.699Z,80.30395508
2023-07-29T04:20:40.634Z,80.40771484
2023-07-29T04:21:41.806Z,80.40771484
2023-07-29T04:22:42.854Z,80.20629883
2023-07-29T04:23:44.247Z,80.10864258
2023-07-29T04:24:45.249Z,79.96826172
2023-07-29T04:25:46.192Z,79.90722656
2023-07-29T04:26:47.212Z,80.00488281
2023-07-29T04:27:48.932Z,80.00488281
2023-07-29T04:28:49.959Z,79.8034668
2023-07-29T04:29:51.137Z,79.90722656
2023-07-29T04:30:52.946Z,79.8034668
2023-07-29T04:31:53.992Z,79.8034668
2023-07-29T04:32:55.008Z,79.8034668
2023-07-29T04:33:56.077Z,79.90722656
2023-07-29T04:34:57.616Z,80.00488281
2023-07-29T04:36:29.174Z,80.20629883
2023-07-29T04:37:30.921Z,80.30395508
2023-07-29T04:38:31.927Z,80.50537109
2023-07-29T04:39:32.966Z,80.50537109
2023-07-29T04:40:34.025Z,80.30395508
2023-07-29T04:41:36.003Z,80.20629883
2023-07-29T04:42:37.058Z,80.20629883
2023-07-29T04:43:38.159Z,80.30395508
2023-07-29T04:44:39.102Z,80.30395508
2023-07-29T04:45:40.252Z,80.50537109
2023-07-29T04:46:41.289Z,80.64575195
2023-07-29T04:47:42.988Z,80.70678711
2023-07-29T04:48:44.264Z,80.60913086
2023-07-29T04:49:45.225Z,80.50537109
2023-07-29T04:50:46.218Z,80.50537109
2023-07-29T04:51:47.241Z,80.50537109
2023-07-29T04:52:48.289Z,80.30395508
2023-07-29T04:53:49.339Z,80.40771484
2023-07-29T04:54:50.353Z,80.50537109
2023-07-29T04:55:51.271Z,80.50537109
2023-07-29T04:56:52.265Z,80.50537109
2023-07-29T04:57:53.941Z,80.50537109
2023-07-29T04:58:55.051Z,80.50537109
2023-07-29T04:59:56.104Z,80.40771484
2023-07-29T05:00:58.444Z,80.30395508
2023-07-29T05:02:29.913Z,80.30395508
2023-07-29T05:03:31.037Z,80.10864258
2023-07-29T05:04:32.204Z,80.30395508
2023-07-29T05:05:33.265Z,80.20629883
2023-07-29T05:06:34.598Z,80.30395508
2023-07-29T05:07:35.495Z,80.40771484
2023-07-29T05:08:37.509Z,80.50537109
2023-07-29T05:09:38.624Z,80.70678711
2023-07-29T05:10:39.701Z,80.80444336
2023-07-29T05:11:40.724Z,80.90820313
2023-07-29T05:12:41.652Z,80.80444336
2023-07-29T05:13:42.670Z,80.60913086
2023-07-29T05:14:43.947Z,80.40771484
2023-07-29T05:15:45.066Z,80.30395508
2023-07-29T05:16:46.102Z,80.40771484
2023-07-29T05:17:47.216Z,80.50537109
2023-07-29T05:18:48.974Z,80.30395508
2023-07-29T05:19:49.958Z,80.50537109
2023-07-29T05:20:50.956Z,80.50537109
2023-07-29T05:21:52.067Z,80.50537109
2023-07-29T05:22:53.147Z,80.40771484
2023-07-29T05:23:54.272Z,80.40771484
2023-07-29T05:24:55.280Z,80.30395508
2023-07-29T05:25:56.307Z,80.20629883
2023-07-29T05:27:28.153Z,80.00488281
2023-07-29T05:28:30.155Z,79.90722656
2023-07-29T05:29:31.272Z,79.70581055
2023-07-29T05:30:32.250Z,79.60205078
2023-07-29T05:31:33.911Z,79.70581055
2023-07-29T05:32:35.016Z,79.90722656
2023-07-29T05:33:36.126Z,79.8034668
2023-07-29T05:34:37.222Z,79.90722656
2023-07-29T05:35:38.513Z,79.90722656
2023-07-29T05:36:40.459Z,79.90722656
2023-07-29T05:37:41.446Z,79.70581055
2023-07-29T05:38:43.389Z,79.70581055
2023-07-29T05:39:44.597Z,79.56542969
2023-07-29T05:40:45.669Z,79.60205078
2023-07-29T05:41:46.776Z,79.60205078
2023-07-29T05:42:47.768Z,79.70581055
2023-07-29T05:43:48.764Z,79.90722656
2023-07-29T05:44:49.737Z,80.06591797
2023-07-29T05:45:50.869Z,80.06591797
2023-07-29T05:46:52.107Z,79.96826172
2023-07-29T05:47:53.193Z,79.86450195
2023-07-29T05:48:54.892Z,79.96826172
2023-07-29T05:49:55.922Z,79.7668457
2023-07-29T05:51:27.781Z,79.86450195
2023-07-29T05:52:28.934Z,79.96826172
2023-07-29T05:53:30.039Z,80.06591797
2023-07-29T05:54:31.115Z,80.06591797
2023-07-29T05:55:32.130Z,79.96826172
2023-07-29T05:56:33.172Z,79.66918945
2023-07-29T05:57:35.025Z,79.66918945
2023-07-29T05:58:36.230Z,79.66918945
2023-07-29T05:59:37.354Z,79.56542969
2023-07-29T06:00:38.511Z,79.46777344
2023-07-29T06:01:39.494Z,79.66918945
2023-07-29T06:02:40.551Z,79.56542969
2023-07-29T06:03:41.706Z,79.56542969
2023-07-29T06:04:42.768Z,79.66918945
2023-07-29T06:05:44.190Z,79.66918945
2023-07-29T06:06:45.186Z,79.46777344
2023-07-29T06:07:46.280Z,79.43115234
2023-07-29T06:08:48.028Z,79.32739258
2023-07-29T06:09:49.066Z,78.8269043
2023-07-29T06:10:50.384Z,78.52783203
2023-07-29T06:11:52.675Z,78.72924805
2023-07-29T06:12:52.351Z,78.93066406
2023-07-29T06:13:53.300Z,78.93066406
2023-07-29T06:14:54.466Z,78.8269043
2023-07-29T06:15:55.593Z,78.32641602
2023-07-29T06:17:27.496Z,78.32641602
2023-07-29T06:18:28.962Z,78.52783203
2023-07-29T06:19:29.908Z,78.22875977
2023-07-29T06:20:30.955Z,78.43017578
2023-07-29T06:21:32.045Z,78.43017578
2023-07-29T06:22:33.114Z,78.32641602
2023-07-29T06:23:34.185Z,77.82592773
2023-07-29T06:24:35.306Z,78.22875977
2023-07-29T06:25:36.239Z,78.13110352
2023-07-29T06:26:37.591Z,78.43017578
2023-07-29T06:27:38.666Z,78.72924805
2023-07-29T06:28:40.597Z,79.02832031
2023-07-29T06:29:41.692Z,79.43115234
2023-07-29T06:30:42.815Z,79.93164063
2023-07-29T06:31:44.474Z,80.02929688
2023-07-29T06:32:45.522Z,79.73022461
2023-07-29T06:33:46.567Z,79.73022461
2023-07-29T06:34:47.697Z,79.43115234
2023-07-29T06:35:48.767Z,79.02832031
2023-07-29T06:36:49.905Z,78.93066406
2023-07-29T06:37:50.800Z,78.8269043
2023-07-29T06:38:52.582Z,78.93066406
2023-07-29T06:39:53.625Z,79.12597656
2023-07-29T06:40:55.467Z,79.02832031
2023-07-29T06:42:27.160Z,78.8269043
2023-07-29T06:43:28.234Z,78.93066406
2023-07-29T06:44:29.191Z,79.02832031
2023-07-29T06:45:30.102Z,79.22973633
2023-07-29T06:46:31.191Z,79.22973633
2023-07-29T06:47:32.199Z,79.22973633
2023-07-29T06:48:33.947Z,79.32739258
2023-07-29T06:49:34.885Z,79.32739258
2023-07-29T06:50:35.880Z,79.32739258
2023-07-29T06:51:36.768Z,79.02832031
2023-07-29T06:52:37.865Z,79.08935547
2023-07-29T06:53:38.792Z,78.72924805
2023-07-29T06:54:39.884Z,78.52783203
2023-07-29T06:55:40.819Z,78.43017578
2023-07-29T06:56:41.812Z,78.52783203
2023-07-29T06:57:42.821Z,78.93066406
2023-07-29T06:58:44.916Z,78.99169922
2023-07-29T06:59:45.918Z,79.19311523
2023-07-29T07:00:46.905Z,79.19311523
2023-07-29T07:01:48.444Z,79.19311523
2023-07-29T07:02:49.441Z,79.38842773
2023-07-29T07:03:50.363Z,79.29077148
2023-07-29T07:04:51.346Z,79.29077148
2023-07-29T07:05:52.295Z,79.29077148
2023-07-29T07:06:53.305Z,79.29077148
2023-07-29T07:07:54.330Z,79.19311523
2023-07-29T07:08:55.901Z,78.99169922
2023-07-29T07:10:27.368Z,79.19311523
2023-07-29T07:11:28.316Z,79.19311523
2023-07-29T07:12:29.297Z,79.35180664
2023-07-29T07:13:30.348Z,79.35180664
2023-07-29T07:14:31.269Z,79.15649414
2023-07-29T07:15:32.189Z,78.85131836
2023-07-29T07:16:33.397Z,78.85131836
2023-07-29T07:17:34.360Z,78.75366211
2023-07-29T07:18:35.317Z,78.65600586
2023-07-29T07:19:36.915Z,78.45458984
2023-07-29T07:20:38.023Z,78.25317383
2023-07-29T07:21:38.915Z,77.95410156
2023-07-29T07:22:39.967Z,77.91748047
2023-07-29T07:23:40.960Z,78.11889648
2023-07-29T07:24:42.076Z,78.21655273
2023-07-29T07:25:43.137Z,78.01513672
2023-07-29T07:26:44.252Z,77.6184082
2023-07-29T07:27:45.994Z,77.71606445
2023-07-29T07:28:47.264Z,77.6184082
2023-07-29T07:29:48.178Z,77.41699219
2023-07-29T07:30:49.124Z,77.41699219
2023-07-29T07:31:51.009Z,77.41699219
2023-07-29T07:32:52.085Z,77.38037109
2023-07-29T07:33:53.054Z,77.38037109
2023-07-29T07:34:55.418Z,77.28271484
2023-07-29T07:36:27.003Z,76.68457031
2023-07-29T07:37:28.138Z,76.68457031
2023-07-29T07:38:29.055Z,76.87988281
2023-07-29T07:39:30.988Z,76.98364258
2023-07-29T07:40:31.959Z,77.17895508
2023-07-29T07:41:33.076Z,77.28271484
2023-07-29T07:42:34.117Z,76.78222656
2023-07-29T07:43:35.112Z,76.28173828
2023-07-29T07:44:36.163Z,76.04370117
2023-07-29T07:45:37.244Z,76.04370117
2023-07-29T07:46:38.479Z,76.14746094
2023-07-29T07:47:39.351Z,76.4465332
2023-07-29T07:48:40.490Z,76.54418945
2023-07-29T07:49:42.544Z,76.84326172
2023-07-29T07:50:43.560Z,76.84326172
2023-07-29T07:51:44.556Z,76.34277344
2023-07-29T07:52:45.564Z,75.74462891
2023-07-29T07:53:46.555Z,75.84838867
2023-07-29T07:54:47.718Z,75.90942383
2023-07-29T07:55:48.660Z,75.21362305
2023-07-29T07:56:49.624Z,75.21362305
2023-07-29T07:57:50.792Z,75.3112793
2023-07-29T07:58:51.745Z,75.21362305
2023-07-29T07:59:53.514Z,75.21362305
2023-07-29T08:00:54.991Z,75.70800781
2023-07-29T08:02:27.039Z,75.97045898
2023-07-29T08:03:28.074Z,75.97045898
2023-07-29T08:04:28.889Z,74.87792969
2023-07-29T08:05:30.116Z,74.47509766
2023-07-29T08:06:31.047Z,74.37744141
2023-07-29T08:07:32.969Z,74.77416992
2023-07-29T08:08:33.959Z,75.47607422
2023-07-29T08:09:35.420Z,75.2746582
2023-07-29T08:10:36.327Z,75.47607422
2023-07-29T08:11:37.204Z,75.77514648
2023-07-29T08:12:38.257Z,75.97045898
2023-07-29T08:13:39.366Z,75.64086914
2023-07-29T08:14:40.309Z,75.43945313
2023-07-29T08:15:41.225Z,75.14038086
2023-07-29T08:16:42.233Z,75.04272461
2023-07-29T08:17:44.057Z,74.84130859
2023-07-29T08:18:45.092Z,74.63989258
2023-07-29T08:19:46.861Z,74.04174805
2023-07-29T08:20:47.784Z,73.84643555
2023-07-29T08:21:48.767Z,73.84643555
2023-07-29T08:22:49.800Z,73.9440918
2023-07-29T08:23:50.660Z,74.14550781
2023-07-29T08:24:51.580Z,74.84130859
2023-07-29T08:25:53.464Z,74.84130859
2023-07-29T08:26:54.838Z,74.84130859
2023-07-29T08:28:26.197Z,75.23803711
2023-07-29T08:29:27.914Z,75.14038086
2023-07-29T08:30:28.887Z,75.14038086
2023-07-29T08:31:30.584Z,75.14038086
2023-07-29T08:32:31.523Z,75.20141602
2023-07-29T08:33:32.445Z,75.00610352
2023-07-29T08:34:33.540Z,74.70703125
2023-07-29T08:35:34.512Z,74.30419922
2023-07-29T08:36:35.833Z,73.60839844
2023-07-29T08:37:37.422Z,73.21166992
2023-07-29T08:38:38.386Z,73.60839844
2023-07-29T08:39:39.956Z,73.7121582
2023-07-29T08:40:40.854Z,73.30932617
2023-07-29T08:41:41.809Z,73.80981445
2023-07-29T08:42:42.651Z,73.80981445
2023-07-29T08:43:43.812Z,73.80981445
2023-07-29T08:44:44.745Z,73.7121582
2023-07-29T08:45:45.687Z,73.51074219
2023-07-29T08:46:46.662Z,73.01025391
2023-07-29T08:47:47.537Z,72.87597656
2023-07-29T08:48:48.557Z,72.68066406
2023-07-29T08:49:50.470Z,72.87597656
2023-07-29T08:50:51.363Z,72.5769043
2023-07-29T08:51:52.332Z,72.3815918
2023-07-29T08:52:53.194Z,72.14355469
2023-07-29T08:53:54.539Z,71.94824219
2023-07-29T08:55:25.937Z,72.04589844
2023-07-29T08:56:26.848Z,72.14355469
2023-07-29T08:57:27.790Z,71.64916992
2023-07-29T08:58:28.665Z,71.64916992
2023-07-29T08:59:30.417Z,71.25244141
2023-07-29T09:00:31.341Z,71.25244141
2023-07-29T09:01:32.917Z,71.35009766
2023-07-29T09:02:33.988Z,71.25244141
2023-07-29T09:03:35.455Z,71.44775391
2023-07-29T09:04:36.369Z,71.55151367
2023-07-29T09:05:37.269Z,71.74682617
2023-07-29T09:06:38.559Z,71.25244141
2023-07-29T09:07:39.105Z,68.76220703
2023-07-29T09:08:39.965Z,68.85986328
2023-07-29T09:09:41.377Z,68.36547852
2023-07-29T09:10:42.932Z,65.97900391
2023-07-29T09:11:44.060Z,65.47851563
2023-07-29T09:12:45.017Z,64.453125
2023-07-29T09:13:45.877Z,64.75219727
2023-07-29T09:14:46.763Z,64.94750977
2023-07-29T09:15:47.623Z,63.45825195
2023-07-29T09:16:48.585Z,63.5559082
2023-07-29T09:17:49.433Z,63.3605957
2023-07-29T09:18:50.284Z,63.5559082
2023-07-29T09:19:51.929Z,63.5559082
2023-07-29T09:20:52.796Z,63.22631836
2023-07-29T09:21:54.112Z,63.33007813
2023-07-29T09:23:25.422Z,63.82446289
2023-07-29T09:24:26.239Z,63.03100586
2023-07-29T09:25:27.275Z,63.72680664
2023-07-29T09:26:28.312Z,63.22631836
2023-07-29T09:27:29.219Z,63.03100586
2023-07-29T09:28:30.148Z,63.52539063
2023-07-29T09:29:30.997Z,62.53051758
2023-07-29T09:30:33.026Z,61.53564453
2023-07-29T09:31:34.082Z,60.94360352
2023-07-29T09:32:36.093Z,60.94360352
2023-07-29T09:33:36.957Z,60.64453125
2023-07-29T09:34:37.876Z,60.64453125
2023-07-29T09:35:38.751Z,60.64453125
2023-07-29T09:36:40.116Z,60.34545898
2023-07-29T09:37:41.554Z,60.01586914
2023-07-29T09:38:42.622Z,59.52148438
2023-07-29T09:39:43.824Z,59.12475586
2023-07-29T09:40:45.416Z,59.02709961
2023-07-29T09:41:48.436Z,59.32006836
2023-07-29T09:42:47.429Z,58.62426758
2023-07-29T09:43:48.507Z,59.02709961
2023-07-29T09:44:49.489Z,58.72802734
2023-07-29T09:45:50.516Z,58.55712891
2023-07-29T09:46:51.484Z,58.85620117
2023-07-29T09:47:52.368Z,58.95385742
2023-07-29T09:48:53.314Z,59.44824219
2023-07-29T09:50:25.528Z,59.25292969
2023-07-29T09:51:26.565Z,59.74731445
2023-07-29T09:52:27.481Z,59.6496582
2023-07-29T09:53:28.384Z,59.85107422
2023-07-29T09:54:29.373Z,60.37597656
2023-07-29T09:55:30.408Z,60.87036133
2023-07-29T09:56:31.421Z,60.67504883
2023-07-29T09:57:32.527Z,61.37084961
2023-07-29T09:58:33.448Z,61.37084961
2023-07-29T09:59:34.423Z,61.66992188
2023-07-29T10:00:36.032Z,61.86523438
2023-07-29T10:01:38.662Z,61.66992188
2023-07-29T10:02:39.247Z,61.8347168
2023-07-29T10:03:41.124Z,61.04125977
2023-07-29T10:04:41.953Z,61.6394043
2023-07-29T10:05:42.914Z,61.8347168
2023-07-29T10:06:44.321Z,61.73706055
2023-07-29T10:07:45.212Z,61.73706055
2023-07-29T10:08:46.210Z,61.2121582
2023-07-29T10:09:47.232Z,60.91308594
2023-07-29T10:10:48.928Z,61.30981445
2023-07-29T10:11:49.824Z,60.41870117
2023-07-29T10:12:50.755Z,60.11962891
2023-07-29T10:14:06.685Z,58.62426758
2023-07-29T10:14:52.802Z,58.62426758
2023-07-29T10:16:24.443Z,58.92333984
2023-07-29T10:17:25.331Z,59.02709961
2023-07-29T10:18:26.325Z,59.02709961
2023-07-29T10:19:27.311Z,58.62426758
2023-07-29T10:20:28.983Z,58.12988281
2023-07-29T10:21:29.986Z,58.03222656
2023-07-29T10:22:30.887Z,57.83081055
2023-07-29T10:23:31.785Z,57.63549805
2023-07-29T10:24:32.745Z,57.7331543
2023-07-29T10:25:33.747Z,58.12988281
2023-07-29T10:26:35.059Z,58.42895508
2023-07-29T10:27:35.803Z,58.33129883
2023-07-29T10:28:36.819Z,58.33129883
2023-07-29T10:29:38.536Z,58.12988281
2023-07-29T10:30:39.530Z,57.9284668
2023-07-29T10:31:41.561Z,58.33129883
2023-07-29T10:32:42.654Z,58.22753906
2023-07-29T10:33:44.627Z,58.52661133
2023-07-29T10:34:45.434Z,58.72802734
2023-07-29T10:35:46.362Z,58.72802734
2023-07-29T10:36:47.416Z,58.52661133
2023-07-29T10:37:48.443Z,58.42895508
2023-07-29T10:38:49.482Z,58.69750977
2023-07-29T10:39:50.523Z,59.09423828
2023-07-29T10:40:51.930Z,59.09423828
2023-07-29T10:41:53.250Z,58.50219727
2023-07-29T10:43:24.829Z,58.3984375
2023-07-29T10:44:25.957Z,58.50219727
2023-07-29T10:45:27.072Z,58.50219727
2023-07-29T10:46:27.898Z,58.77075195
2023-07-29T10:47:28.865Z,58.56933594
2023-07-29T10:48:29.778Z,58.77075195
2023-07-29T10:49:30.847Z,58.96606445
2023-07-29T10:50:32.474Z,58.77075195
2023-07-29T10:51:33.480Z,58.8684082
2023-07-29T10:52:34.370Z,59.03930664
2023-07-29T10:53:35.260Z,58.64257813
2023-07-29T10:54:36.358Z,58.34350586
2023-07-29T10:55:37.303Z,58.11767578
2023-07-29T10:56:39.401Z,57.72094727
2023-07-29T10:57:40.111Z,56.92749023
2023-07-29T10:58:40.992Z,56.82983398
2023-07-29T10:59:41.925Z,56.82983398
2023-07-29T11:00:43.537Z,56.73217773
2023-07-29T11:01:44.672Z,56.73217773
2023-07-29T11:02:46.498Z,56.53076172
2023-07-29T11:03:47.406Z,56.92749023
2023-07-29T11:04:48.295Z,56.33544922
2023-07-29T11:05:49.170Z,56.33544922
2023-07-29T11:06:50.121Z,56.92749023
2023-07-29T11:07:51.094Z,57.02514648
2023-07-29T11:08:52.030Z,56.45751953
2023-07-29T11:10:23.623Z,56.85424805
2023-07-29T11:11:25.408Z,57.45239258
2023-07-29T11:12:26.391Z,57.05566406
2023-07-29T11:13:27.398Z,57.05566406
2023-07-29T11:14:28.434Z,57.05566406
2023-07-29T11:15:29.399Z,57.55004883